sensor_id;sensor_type;location;lat;lon;timestamp;P1;durP1;ratioP1;P2;durP2;ratioP2
26271;SDS011;13997;48.902;12.472;2023-04-22T00:00:55;18.63;;;7.05;;
26271;SDS011;13997;48.902;12.472;2023-04-22T00:03:22;13.95;;;7.65;;
26271;SDS011;13997;48.902;12.472;2023-04-22T00:05:48;15.10;;;7.40;;
26271;SDS011;13997;48.902;12.472;2023-04-22T00:08:14;14.82;;;7.28;;
26271;SDS011;13997;48.902;12.472;2023-04-22T00:10:40;17.88;;;6.68;;
26271;SDS011;13997;48.902;12.472;2023-04-22T00:13:06;16.13;;;7.05;;
26271;SDS011;13997;48.902;12.472;2023-04-22T00:15:32;15.07;;;6.15;;
26271;SDS011;13997;48.902;12.472;2023-04-22T00:17:58;13.20;;;6.78;;
26271;SDS011;13997;48.902;12.472;2023-04-22T00:20:24;11.30;;;5.32;;
26271;SDS011;13997;48.902;12.472;2023-04-22T00:22:50;14.65;;;6.05;;
26271;SDS011;13997;48.902;12.472;2023-04-22T00:25:16;12.02;;;5.32;;
26271;SDS011;13997;48.902;12.472;2023-04-22T00:27:42;11.18;;;6.10;;
26271;SDS011;13997;48.902;12.472;2023-04-22T00:30:09;11.05;;;5.65;;
26271;SDS011;13997;48.902;12.472;2023-04-22T00:32:35;12.88;;;6.20;;
26271;SDS011;13997;48.902;12.472;2023-04-22T00:35:02;11.35;;;6.68;;
26271;SDS011;13997;48.902;12.472;2023-04-22T00:37:28;12.18;;;7.28;;
26271;SDS011;13997;48.902;12.472;2023-04-22T00:39:53;10.25;;;7.07;;
26271;SDS011;13997;48.902;12.472;2023-04-22T00:42:19;12.98;;;7.03;;
26271;SDS011;13997;48.902;12.472;2023-04-22T00:44:46;18.52;;;8.57;;
26271;SDS011;13997;48.902;12.472;2023-04-22T00:47:12;20.15;;;7.65;;
26271;SDS011;13997;48.902;12.472;2023-04-22T00:49:38;13.82;;;6.57;;
26271;SDS011;13997;48.902;12.472;2023-04-22T00:52:04;16.23;;;6.38;;
26271;SDS011;13997;48.902;12.472;2023-04-22T00:54:29;14.07;;;6.63;;
26271;SDS011;13997;48.902;12.472;2023-04-22T00:56:56;14.77;;;6.70;;
26271;SDS011;13997;48.902;12.472;2023-04-22T00:59:22;10.45;;;5.88;;
26271;SDS011;13997;48.902;12.472;2023-04-22T01:01:50;11.48;;;6.78;;
26271;SDS011;13997;48.902;12.472;2023-04-22T01:04:16;15.10;;;6.55;;
26271;SDS011;13997;48.902;12.472;2023-04-22T01:06:42;11.93;;;6.10;;
26271;SDS011;13997;48.902;12.472;2023-04-22T01:09:08;14.23;;;6.55;;
26271;SDS011;13997;48.902;12.472;2023-04-22T01:11:34;13.60;;;6.80;;
26271;SDS011;13997;48.902;12.472;2023-04-22T01:14:00;12.38;;;7.10;;
26271;SDS011;13997;48.902;12.472;2023-04-22T01:16:26;15.70;;;7.78;;
26271;SDS011;13997;48.902;12.472;2023-04-22T01:18:53;15.93;;;8.23;;
26271;SDS011;13997;48.902;12.472;2023-04-22T01:21:19;14.90;;;7.85;;
26271;SDS011;13997;48.902;12.472;2023-04-22T01:23:44;16.42;;;7.50;;
26271;SDS011;13997;48.902;12.472;2023-04-22T01:26:10;11.23;;;7.00;;
26271;SDS011;13997;48.902;12.472;2023-04-22T01:28:36;12.70;;;7.43;;
26271;SDS011;13997;48.902;12.472;2023-04-22T01:31:02;12.55;;;6.55;;
26271;SDS011;13997;48.902;12.472;2023-04-22T01:33:28;13.00;;;6.35;;
26271;SDS011;13997;48.902;12.472;2023-04-22T01:35:54;11.60;;;6.00;;
26271;SDS011;13997;48.902;12.472;2023-04-22T01:38:20;15.52;;;5.97;;
26271;SDS011;13997;48.902;12.472;2023-04-22T01:40:47;8.93;;;5.35;;
26271;SDS011;13997;48.902;12.472;2023-04-22T01:43:13;13.10;;;6.05;;
26271;SDS011;13997;48.902;12.472;2023-04-22T01:45:39;9.98;;;5.75;;
26271;SDS011;13997;48.902;12.472;2023-04-22T01:48:04;12.10;;;5.88;;
26271;SDS011;13997;48.902;12.472;2023-04-22T01:50:33;9.05;;;6.35;;
26271;SDS011;13997;48.902;12.472;2023-04-22T01:52:59;11.55;;;6.72;;
26271;SDS011;13997;48.902;12.472;2023-04-22T01:55:24;13.52;;;7.10;;
26271;SDS011;13997;48.902;12.472;2023-04-22T01:57:50;16.08;;;7.72;;
26271;SDS011;13997;48.902;12.472;2023-04-22T02:00:16;14.85;;;7.53;;
26271;SDS011;13997;48.902;12.472;2023-04-22T02:02:42;13.70;;;7.20;;
26271;SDS011;13997;48.902;12.472;2023-04-22T02:05:08;14.57;;;7.00;;
26271;SDS011;13997;48.902;12.472;2023-04-22T02:07:34;18.60;;;7.30;;
26271;SDS011;13997;48.902;12.472;2023-04-22T02:10:01;11.50;;;6.88;;
26271;SDS011;13997;48.902;12.472;2023-04-22T02:12:28;11.75;;;6.38;;
26271;SDS011;13997;48.902;12.472;2023-04-22T02:14:55;10.15;;;6.38;;
26271;SDS011;13997;48.902;12.472;2023-04-22T02:17:20;13.65;;;6.78;;
26271;SDS011;13997;48.902;12.472;2023-04-22T02:19:46;13.95;;;5.53;;
26271;SDS011;13997;48.902;12.472;2023-04-22T02:22:11;15.32;;;7.55;;
26271;SDS011;13997;48.902;12.472;2023-04-22T02:24:37;11.82;;;6.28;;
26271;SDS011;13997;48.902;12.472;2023-04-22T02:27:03;10.32;;;5.78;;
26271;SDS011;13997;48.902;12.472;2023-04-22T02:29:28;14.82;;;6.50;;
26271;SDS011;13997;48.902;12.472;2023-04-22T02:31:56;12.65;;;6.18;;
26271;SDS011;13997;48.902;12.472;2023-04-22T02:34:22;13.38;;;6.05;;
26271;SDS011;13997;48.902;12.472;2023-04-22T02:36:48;12.90;;;6.53;;
26271;SDS011;13997;48.902;12.472;2023-04-22T02:39:13;12.45;;;6.47;;
26271;SDS011;13997;48.902;12.472;2023-04-22T02:41:39;17.77;;;6.18;;
26271;SDS011;13997;48.902;12.472;2023-04-22T02:44:04;13.57;;;7.00;;
26271;SDS011;13997;48.902;12.472;2023-04-22T02:46:30;15.80;;;7.13;;
26271;SDS011;13997;48.902;12.472;2023-04-22T02:48:56;14.48;;;7.28;;
26271;SDS011;13997;48.902;12.472;2023-04-22T02:51:21;12.90;;;7.15;;
26271;SDS011;13997;48.902;12.472;2023-04-22T02:53:47;15.48;;;8.10;;
26271;SDS011;13997;48.902;12.472;2023-04-22T02:56:12;16.85;;;7.90;;
26271;SDS011;13997;48.902;12.472;2023-04-22T02:58:38;14.52;;;8.20;;
26271;SDS011;13997;48.902;12.472;2023-04-22T03:01:04;12.65;;;7.47;;
26271;SDS011;13997;48.902;12.472;2023-04-22T03:03:29;12.80;;;7.38;;
26271;SDS011;13997;48.902;12.472;2023-04-22T03:05:55;15.18;;;7.70;;
26271;SDS011;13997;48.902;12.472;2023-04-22T03:08:21;12.32;;;7.18;;
26271;SDS011;13997;48.902;12.472;2023-04-22T03:10:47;19.75;;;7.80;;
26271;SDS011;13997;48.902;12.472;2023-04-22T03:13:12;17.13;;;7.13;;
26271;SDS011;13997;48.902;12.472;2023-04-22T03:15:41;10.15;;;6.72;;
26271;SDS011;13997;48.902;12.472;2023-04-22T03:18:07;14.70;;;7.53;;
26271;SDS011;13997;48.902;12.472;2023-04-22T03:20:33;9.35;;;6.22;;
26271;SDS011;13997;48.902;12.472;2023-04-22T03:22:59;11.18;;;6.45;;
26271;SDS011;13997;48.902;12.472;2023-04-22T03:25:25;10.73;;;6.50;;
26271;SDS011;13997;48.902;12.472;2023-04-22T03:27:50;13.85;;;6.40;;
26271;SDS011;13997;48.902;12.472;2023-04-22T03:30:16;12.68;;;7.03;;
26271;SDS011;13997;48.902;12.472;2023-04-22T03:32:42;15.70;;;6.30;;
26271;SDS011;13997;48.902;12.472;2023-04-22T03:35:07;16.92;;;6.78;;
26271;SDS011;13997;48.902;12.472;2023-04-22T03:37:33;11.13;;;6.10;;
26271;SDS011;13997;48.902;12.472;2023-04-22T03:39:59;12.60;;;6.35;;
26271;SDS011;13997;48.902;12.472;2023-04-22T03:42:24;13.63;;;6.78;;
26271;SDS011;13997;48.902;12.472;2023-04-22T03:44:50;12.30;;;6.38;;
26271;SDS011;13997;48.902;12.472;2023-04-22T03:47:16;10.65;;;6.18;;
26271;SDS011;13997;48.902;12.472;2023-04-22T03:49:41;13.23;;;6.38;;
26271;SDS011;13997;48.902;12.472;2023-04-22T03:52:07;10.40;;;5.95;;
26271;SDS011;13997;48.902;12.472;2023-04-22T03:54:32;11.77;;;5.63;;
26271;SDS011;13997;48.902;12.472;2023-04-22T03:56:58;8.68;;;5.72;;
26271;SDS011;13997;48.902;12.472;2023-04-22T03:59:23;14.15;;;6.65;;
26271;SDS011;13997;48.902;12.472;2023-04-22T04:01:50;11.00;;;6.28;;
26271;SDS011;13997;48.902;12.472;2023-04-22T04:04:16;13.35;;;7.13;;
26271;SDS011;13997;48.902;12.472;2023-04-22T04:06:42;13.48;;;7.13;;
26271;SDS011;13997;48.902;12.472;2023-04-22T04:09:07;15.43;;;7.05;;
26271;SDS011;13997;48.902;12.472;2023-04-22T04:11:33;11.73;;;7.07;;
26271;SDS011;13997;48.902;12.472;2023-04-22T04:13:59;11.90;;;7.97;;
26271;SDS011;13997;48.902;12.472;2023-04-22T04:16:24;16.63;;;7.80;;
26271;SDS011;13997;48.902;12.472;2023-04-22T04:18:50;19.80;;;7.32;;
26271;SDS011;13997;48.902;12.472;2023-04-22T04:21:16;12.18;;;6.95;;
26271;SDS011;13997;48.902;12.472;2023-04-22T04:23:41;10.75;;;6.03;;
26271;SDS011;13997;48.902;12.472;2023-04-22T04:26:07;15.45;;;6.38;;
26271;SDS011;13997;48.902;12.472;2023-04-22T04:28:33;11.13;;;6.35;;
26271;SDS011;13997;48.902;12.472;2023-04-22T04:30:59;13.07;;;6.47;;
26271;SDS011;13997;48.902;12.472;2023-04-22T04:33:26;14.52;;;6.40;;
26271;SDS011;13997;48.902;12.472;2023-04-22T04:35:52;12.48;;;6.13;;
26271;SDS011;13997;48.902;12.472;2023-04-22T04:38:18;11.20;;;7.00;;
26271;SDS011;13997;48.902;12.472;2023-04-22T04:40:44;10.93;;;6.72;;
26271;SDS011;13997;48.902;12.472;2023-04-22T04:43:09;10.88;;;6.65;;
26271;SDS011;13997;48.902;12.472;2023-04-22T04:45:37;16.88;;;7.00;;
26271;SDS011;13997;48.902;12.472;2023-04-22T04:48:03;11.95;;;6.43;;
26271;SDS011;13997;48.902;12.472;2023-04-22T04:50:31;9.13;;;5.68;;
26271;SDS011;13997;48.902;12.472;2023-04-22T04:52:56;11.07;;;5.50;;
26271;SDS011;13997;48.902;12.472;2023-04-22T04:55:22;12.52;;;5.53;;
26271;SDS011;13997;48.902;12.472;2023-04-22T04:57:47;10.82;;;6.07;;
26271;SDS011;13997;48.902;12.472;2023-04-22T05:00:13;9.18;;;6.05;;
26271;SDS011;13997;48.902;12.472;2023-04-22T05:02:39;10.73;;;6.47;;
26271;SDS011;13997;48.902;12.472;2023-04-22T05:05:05;48.10;;;26.25;;
26271;SDS011;13997;48.902;12.472;2023-04-22T05:07:31;13.60;;;7.78;;
26271;SDS011;13997;48.902;12.472;2023-04-22T05:09:58;25.90;;;8.27;;
26271;SDS011;13997;48.902;12.472;2023-04-22T05:12:24;17.40;;;7.05;;
26271;SDS011;13997;48.902;12.472;2023-04-22T05:14:50;11.95;;;6.35;;
26271;SDS011;13997;48.902;12.472;2023-04-22T05:17:15;15.25;;;6.00;;
26271;SDS011;13997;48.902;12.472;2023-04-22T05:19:41;13.27;;;5.97;;
26271;SDS011;13997;48.902;12.472;2023-04-22T05:22:07;12.27;;;5.95;;
26271;SDS011;13997;48.902;12.472;2023-04-22T05:24:32;12.02;;;6.55;;
26271;SDS011;13997;48.902;12.472;2023-04-22T05:26:58;10.20;;;6.18;;
26271;SDS011;13997;48.902;12.472;2023-04-22T05:29:24;13.32;;;6.47;;
26271;SDS011;13997;48.902;12.472;2023-04-22T05:31:51;10.88;;;6.25;;
26271;SDS011;13997;48.902;12.472;2023-04-22T05:34:16;12.32;;;6.28;;
26271;SDS011;13997;48.902;12.472;2023-04-22T05:36:42;11.93;;;5.97;;
26271;SDS011;13997;48.902;12.472;2023-04-22T05:39:07;8.02;;;5.45;;
26271;SDS011;13997;48.902;12.472;2023-04-22T05:41:33;10.02;;;5.75;;
26271;SDS011;13997;48.902;12.472;2023-04-22T05:43:59;11.23;;;5.75;;
26271;SDS011;13997;48.902;12.472;2023-04-22T05:46:24;11.55;;;6.03;;
26271;SDS011;13997;48.902;12.472;2023-04-22T05:48:50;11.93;;;6.00;;
26271;SDS011;13997;48.902;12.472;2023-04-22T05:51:16;9.25;;;5.60;;
26271;SDS011;13997;48.902;12.472;2023-04-22T05:53:41;9.55;;;5.88;;
26271;SDS011;13997;48.902;12.472;2023-04-22T05:56:07;9.98;;;6.55;;
26271;SDS011;13997;48.902;12.472;2023-04-22T05:58:32;10.25;;;5.40;;
26271;SDS011;13997;48.902;12.472;2023-04-22T06:00:59;9.02;;;5.35;;
26271;SDS011;13997;48.902;12.472;2023-04-22T06:03:25;11.30;;;5.35;;
26271;SDS011;13997;48.902;12.472;2023-04-22T06:05:50;8.82;;;5.45;;
26271;SDS011;13997;48.902;12.472;2023-04-22T06:08:16;11.73;;;5.25;;
26271;SDS011;13997;48.902;12.472;2023-04-22T06:10:43;21.50;;;7.35;;
26271;SDS011;13997;48.902;12.472;2023-04-22T06:13:09;11.10;;;5.18;;
26271;SDS011;13997;48.902;12.472;2023-04-22T06:15:34;9.77;;;5.53;;
26271;SDS011;13997;48.902;12.472;2023-04-22T06:18:00;12.90;;;5.90;;
26271;SDS011;13997;48.902;12.472;2023-04-22T06:20:26;11.52;;;6.00;;
26271;SDS011;13997;48.902;12.472;2023-04-22T06:22:51;9.40;;;5.35;;
26271;SDS011;13997;48.902;12.472;2023-04-22T06:25:17;8.55;;;5.75;;
26271;SDS011;13997;48.902;12.472;2023-04-22T06:27:42;14.00;;;5.72;;
26271;SDS011;13997;48.902;12.472;2023-04-22T06:30:08;13.95;;;5.80;;
26271;SDS011;13997;48.902;12.472;2023-04-22T06:32:35;9.57;;;6.22;;
26271;SDS011;13997;48.902;12.472;2023-04-22T06:35:01;11.70;;;5.78;;
26271;SDS011;13997;48.902;12.472;2023-04-22T06:37:27;19.55;;;5.93;;
26271;SDS011;13997;48.902;12.472;2023-04-22T06:39:52;12.23;;;6.05;;
26271;SDS011;13997;48.902;12.472;2023-04-22T06:42:18;8.82;;;5.45;;
26271;SDS011;13997;48.902;12.472;2023-04-22T06:44:43;10.82;;;5.40;;
26271;SDS011;13997;48.902;12.472;2023-04-22T06:47:09;8.68;;;5.13;;
26271;SDS011;13997;48.902;12.472;2023-04-22T06:49:34;9.55;;;5.45;;
26271;SDS011;13997;48.902;12.472;2023-04-22T06:52:02;11.00;;;5.57;;
26271;SDS011;13997;48.902;12.472;2023-04-22T06:54:28;11.45;;;4.97;;
26271;SDS011;13997;48.902;12.472;2023-04-22T06:56:54;9.05;;;4.85;;
26271;SDS011;13997;48.902;12.472;2023-04-22T06:59:19;9.63;;;4.82;;
26271;SDS011;13997;48.902;12.472;2023-04-22T07:01:45;17.77;;;5.80;;
26271;SDS011;13997;48.902;12.472;2023-04-22T07:04:11;16.10;;;5.03;;
26271;SDS011;13997;48.902;12.472;2023-04-22T07:06:36;10.75;;;4.35;;
26271;SDS011;13997;48.902;12.472;2023-04-22T07:09:02;11.73;;;5.03;;
26271;SDS011;13997;48.902;12.472;2023-04-22T07:11:27;8.65;;;4.43;;
26271;SDS011;13997;48.902;12.472;2023-04-22T07:13:55;9.93;;;4.60;;
26271;SDS011;13997;48.902;12.472;2023-04-22T07:16:21;9.40;;;4.18;;
26271;SDS011;13997;48.902;12.472;2023-04-22T07:18:46;13.00;;;4.60;;
26271;SDS011;13997;48.902;12.472;2023-04-22T07:21:12;9.48;;;4.35;;
26271;SDS011;13997;48.902;12.472;2023-04-22T07:23:38;10.57;;;4.15;;
26271;SDS011;13997;48.902;12.472;2023-04-22T07:26:03;12.20;;;4.82;;
26271;SDS011;13997;48.902;12.472;2023-04-22T07:28:29;15.07;;;4.35;;
26271;SDS011;13997;48.902;12.472;2023-04-22T07:30:55;7.57;;;3.67;;
26271;SDS011;13997;48.902;12.472;2023-04-22T07:33:20;8.85;;;4.05;;
26271;SDS011;13997;48.902;12.472;2023-04-22T07:35:47;8.93;;;3.88;;
26271;SDS011;13997;48.902;12.472;2023-04-22T07:38:12;11.10;;;4.03;;
26271;SDS011;13997;48.902;12.472;2023-04-22T07:40:38;8.80;;;3.60;;
26271;SDS011;13997;48.902;12.472;2023-04-22T07:43:04;17.02;;;4.35;;
26271;SDS011;13997;48.902;12.472;2023-04-22T07:45:30;8.05;;;3.35;;
26271;SDS011;13997;48.902;12.472;2023-04-22T07:47:57;50.55;;;8.70;;
26271;SDS011;13997;48.902;12.472;2023-04-22T07:50:22;25.60;;;4.78;;
26271;SDS011;13997;48.902;12.472;2023-04-22T07:52:48;15.07;;;3.70;;
26271;SDS011;13997;48.902;12.472;2023-04-22T07:55:14;11.07;;;3.35;;
26271;SDS011;13997;48.902;12.472;2023-04-22T07:57:39;8.23;;;3.35;;
26271;SDS011;13997;48.902;12.472;2023-04-22T08:00:05;10.65;;;3.50;;
26271;SDS011;13997;48.902;12.472;2023-04-22T08:02:32;9.07;;;3.72;;
26271;SDS011;13997;48.902;12.472;2023-04-22T08:04:57;267.65;;;19.88;;
26271;SDS011;13997;48.902;12.472;2023-04-22T08:07:23;19.00;;;4.40;;
26271;SDS011;13997;48.902;12.472;2023-04-22T08:09:49;8.40;;;3.55;;
26271;SDS011;13997;48.902;12.472;2023-04-22T08:12:14;8.57;;;3.40;;
26271;SDS011;13997;48.902;12.472;2023-04-22T08:14:40;10.93;;;3.00;;
26271;SDS011;13997;48.902;12.472;2023-04-22T08:17:06;7.60;;;3.55;;
26271;SDS011;13997;48.902;12.472;2023-04-22T08:19:31;11.30;;;4.07;;
26271;SDS011;13997;48.902;12.472;2023-04-22T08:21:57;13.88;;;3.72;;
26271;SDS011;13997;48.902;12.472;2023-04-22T08:24:22;10.52;;;3.75;;
26271;SDS011;13997;48.902;12.472;2023-04-22T08:26:48;8.77;;;4.03;;
26271;SDS011;13997;48.902;12.472;2023-04-22T08:29:14;80.30;;;9.60;;
26271;SDS011;13997;48.902;12.472;2023-04-22T08:31:40;13.18;;;3.60;;
26271;SDS011;13997;48.902;12.472;2023-04-22T08:34:06;10.80;;;4.20;;
26271;SDS011;13997;48.902;12.472;2023-04-22T08:36:31;9.20;;;3.58;;
26271;SDS011;13997;48.902;12.472;2023-04-22T08:38:57;8.70;;;3.53;;
26271;SDS011;13997;48.902;12.472;2023-04-22T08:41:23;5.90;;;3.20;;
26271;SDS011;13997;48.902;12.472;2023-04-22T08:43:48;7.22;;;3.72;;
26271;SDS011;13997;48.902;12.472;2023-04-22T08:46:14;6.80;;;3.45;;
26271;SDS011;13997;48.902;12.472;2023-04-22T08:48:43;8.63;;;3.42;;
26271;SDS011;13997;48.902;12.472;2023-04-22T08:51:11;13.13;;;3.60;;
26271;SDS011;13997;48.902;12.472;2023-04-22T08:53:39;10.82;;;3.67;;
26271;SDS011;13997;48.902;12.472;2023-04-22T08:56:04;9.45;;;3.15;;
26271;SDS011;13997;48.902;12.472;2023-04-22T08:58:30;10.07;;;3.30;;
26271;SDS011;13997;48.902;12.472;2023-04-22T09:00:57;8.88;;;3.10;;
26271;SDS011;13997;48.902;12.472;2023-04-22T09:03:24;9.98;;;3.40;;
26271;SDS011;13997;48.902;12.472;2023-04-22T09:05:50;10.57;;;3.40;;
26271;SDS011;13997;48.902;12.472;2023-04-22T09:08:17;6.30;;;2.97;;
26271;SDS011;13997;48.902;12.472;2023-04-22T09:10:44;6.40;;;2.75;;
26271;SDS011;13997;48.902;12.472;2023-04-22T09:13:09;10.07;;;3.45;;
26271;SDS011;13997;48.902;12.472;2023-04-22T09:15:37;7.32;;;3.53;;
26271;SDS011;13997;48.902;12.472;2023-04-22T09:18:02;7.72;;;3.28;;
26271;SDS011;13997;48.902;12.472;2023-04-22T09:20:29;12.57;;;3.00;;
26271;SDS011;13997;48.902;12.472;2023-04-22T09:22:56;10.65;;;3.28;;
26271;SDS011;13997;48.902;12.472;2023-04-22T09:25:26;6.80;;;3.38;;
26271;SDS011;13997;48.902;12.472;2023-04-22T09:27:53;8.25;;;3.53;;
26271;SDS011;13997;48.902;12.472;2023-04-22T09:32:56;6.45;;;2.97;;
26271;SDS011;13997;48.902;12.472;2023-04-22T09:35:26;6.60;;;3.75;;
26271;SDS011;13997;48.902;12.472;2023-04-22T09:37:56;7.25;;;3.00;;
26271;SDS011;13997;48.902;12.472;2023-04-22T09:40:24;5.60;;;3.40;;
26271;SDS011;13997;48.902;12.472;2023-04-22T09:42:51;6.07;;;3.28;;
26271;SDS011;13997;48.902;12.472;2023-04-22T09:45:27;6.05;;;3.15;;
26271;SDS011;13997;48.902;12.472;2023-04-22T09:47:53;6.10;;;3.03;;
26271;SDS011;13997;48.902;12.472;2023-04-22T09:50:21;8.18;;;3.63;;
26271;SDS011;13997;48.902;12.472;2023-04-22T09:52:54;8.85;;;2.92;;
26271;SDS011;13997;48.902;12.472;2023-04-22T09:55:23;9.10;;;2.97;;
26271;SDS011;13997;48.902;12.472;2023-04-22T09:57:51;7.43;;;2.97;;
26271;SDS011;13997;48.902;12.472;2023-04-22T10:00:18;6.60;;;2.63;;
26271;SDS011;13997;48.902;12.472;2023-04-22T10:02:45;5.57;;;2.80;;
26271;SDS011;13997;48.902;12.472;2023-04-22T10:05:10;8.77;;;3.40;;
26271;SDS011;13997;48.902;12.472;2023-04-22T10:07:37;6.53;;;3.00;;
26271;SDS011;13997;48.902;12.472;2023-04-22T10:10:03;9.25;;;3.03;;
26271;SDS011;13997;48.902;12.472;2023-04-22T10:12:33;7.53;;;2.92;;
26271;SDS011;13997;48.902;12.472;2023-04-22T10:15:00;5.63;;;2.88;;
26271;SDS011;13997;48.902;12.472;2023-04-22T10:17:27;7.70;;;2.90;;
26271;SDS011;13997;48.902;12.472;2023-04-22T10:19:55;5.47;;;2.58;;
26271;SDS011;13997;48.902;12.472;2023-04-22T10:22:21;5.70;;;2.70;;
26271;SDS011;13997;48.902;12.472;2023-04-22T10:24:47;8.73;;;2.88;;
26271;SDS011;13997;48.902;12.472;2023-04-22T10:27:15;7.63;;;2.70;;
26271;SDS011;13997;48.902;12.472;2023-04-22T10:29:46;4.10;;;2.22;;
26271;SDS011;13997;48.902;12.472;2023-04-22T10:34:45;7.18;;;2.72;;
26271;SDS011;13997;48.902;12.472;2023-04-22T10:37:12;4.38;;;2.08;;
26271;SDS011;13997;48.902;12.472;2023-04-22T10:39:39;4.95;;;2.20;;
26271;SDS011;13997;48.902;12.472;2023-04-22T10:42:09;5.43;;;2.50;;
26271;SDS011;13997;48.902;12.472;2023-04-22T10:52:58;4.30;;;2.33;;
26271;SDS011;13997;48.902;12.472;2023-04-22T10:55:48;3.60;;;2.47;;
26271;SDS011;13997;48.902;12.472;2023-04-22T10:58:18;4.75;;;2.53;;
26271;SDS011;13997;48.902;12.472;2023-04-22T11:00:44;7.20;;;2.83;;
26271;SDS011;13997;48.902;12.472;2023-04-22T11:03:12;8.73;;;2.40;;
26271;SDS011;13997;48.902;12.472;2023-04-22T11:05:40;4.63;;;2.15;;
26271;SDS011;13997;48.902;12.472;2023-04-22T11:08:07;4.30;;;2.33;;
26271;SDS011;13997;48.902;12.472;2023-04-22T11:10:45;5.30;;;2.35;;
26271;SDS011;13997;48.902;12.472;2023-04-22T11:13:15;6.63;;;2.50;;
26271;SDS011;13997;48.902;12.472;2023-04-22T11:15:46;4.50;;;2.17;;
26271;SDS011;13997;48.902;12.472;2023-04-22T11:18:17;4.88;;;2.67;;
26271;SDS011;13997;48.902;12.472;2023-04-22T11:20:44;8.00;;;2.55;;
26271;SDS011;13997;48.902;12.472;2023-04-22T11:23:14;7.03;;;2.53;;
26271;SDS011;13997;48.902;12.472;2023-04-22T11:25:41;4.60;;;2.70;;
26271;SDS011;13997;48.902;12.472;2023-04-22T11:28:07;7.43;;;2.90;;
26271;SDS011;13997;48.902;12.472;2023-04-22T11:30:33;4.78;;;2.20;;
26271;SDS011;13997;48.902;12.472;2023-04-22T11:32:59;6.15;;;2.50;;
26271;SDS011;13997;48.902;12.472;2023-04-22T11:35:29;10.07;;;2.92;;
26271;SDS011;13997;48.902;12.472;2023-04-22T11:40:23;9.75;;;2.65;;
26271;SDS011;13997;48.902;12.472;2023-04-22T11:42:51;6.30;;;2.25;;
26271;SDS011;13997;48.902;12.472;2023-04-22T11:45:18;4.32;;;2.38;;
26271;SDS011;13997;48.902;12.472;2023-04-22T11:47:45;5.85;;;2.53;;
26271;SDS011;13997;48.902;12.472;2023-04-22T11:50:11;4.20;;;2.25;;
26271;SDS011;13997;48.902;12.472;2023-04-22T11:52:45;6.07;;;2.65;;
26271;SDS011;13997;48.902;12.472;2023-04-22T11:55:13;4.15;;;2.42;;
26271;SDS011;13997;48.902;12.472;2023-04-22T11:57:38;5.13;;;2.08;;
26271;SDS011;13997;48.902;12.472;2023-04-22T12:00:05;6.20;;;2.40;;
26271;SDS011;13997;48.902;12.472;2023-04-22T12:02:31;4.95;;;2.05;;
26271;SDS011;13997;48.902;12.472;2023-04-22T12:04:57;3.88;;;2.35;;
26271;SDS011;13997;48.902;12.472;2023-04-22T12:07:27;5.13;;;2.15;;
26271;SDS011;13997;48.902;12.472;2023-04-22T12:09:53;4.32;;;1.95;;
26271;SDS011;13997;48.902;12.472;2023-04-22T12:12:23;10.90;;;6.32;;
26271;SDS011;13997;48.902;12.472;2023-04-22T12:14:49;4.28;;;2.60;;
26271;SDS011;13997;48.902;12.472;2023-04-22T12:17:21;8.82;;;2.25;;
26271;SDS011;13997;48.902;12.472;2023-04-22T12:19:55;8.93;;;1.95;;
26271;SDS011;13997;48.902;12.472;2023-04-22T12:22:24;3.17;;;1.98;;
26271;SDS011;13997;48.902;12.472;2023-04-22T12:24:51;9.18;;;2.08;;
26271;SDS011;13997;48.902;12.472;2023-04-22T12:27:18;3.92;;;2.10;;
26271;SDS011;13997;48.902;12.472;2023-04-22T12:29:54;3.35;;;1.83;;
26271;SDS011;13997;48.902;12.472;2023-04-22T12:32:20;3.85;;;2.00;;
26271;SDS011;13997;48.902;12.472;2023-04-22T12:34:47;1.83;;;1.40;;
26271;SDS011;13997;48.902;12.472;2023-04-22T12:37:13;3.40;;;1.83;;
26271;SDS011;13997;48.902;12.472;2023-04-22T12:39:39;6.88;;;1.95;;
26271;SDS011;13997;48.902;12.472;2023-04-22T12:42:05;3.58;;;1.85;;
26271;SDS011;13997;48.902;12.472;2023-04-22T12:44:31;6.68;;;1.80;;
26271;SDS011;13997;48.902;12.472;2023-04-22T12:46:57;3.20;;;2.00;;
26271;SDS011;13997;48.902;12.472;2023-04-22T12:49:23;5.85;;;1.90;;
26271;SDS011;13997;48.902;12.472;2023-04-22T12:51:49;3.17;;;1.63;;
26271;SDS011;13997;48.902;12.472;2023-04-22T12:54:16;1.88;;;1.52;;
26271;SDS011;13997;48.902;12.472;2023-04-22T12:56:42;4.20;;;1.92;;
26271;SDS011;13997;48.902;12.472;2023-04-22T12:59:09;5.05;;;1.92;;
26271;SDS011;13997;48.902;12.472;2023-04-22T13:01:35;3.28;;;1.50;;
26271;SDS011;13997;48.902;12.472;2023-04-22T13:04:00;5.13;;;1.70;;
26271;SDS011;13997;48.902;12.472;2023-04-22T13:06:26;4.88;;;1.70;;
26271;SDS011;13997;48.902;12.472;2023-04-22T13:08:53;3.40;;;2.03;;
26271;SDS011;13997;48.902;12.472;2023-04-22T13:11:18;4.95;;;1.85;;
26271;SDS011;13997;48.902;12.472;2023-04-22T13:13:44;3.17;;;1.67;;
26271;SDS011;13997;48.902;12.472;2023-04-22T13:16:10;5.28;;;2.38;;
26271;SDS011;13997;48.902;12.472;2023-04-22T13:18:36;4.15;;;1.65;;
26271;SDS011;13997;48.902;12.472;2023-04-22T13:21:01;3.85;;;1.65;;
26271;SDS011;13997;48.902;12.472;2023-04-22T13:23:27;3.50;;;1.17;;
26271;SDS011;13997;48.902;12.472;2023-04-22T13:25:52;4.72;;;1.23;;
26271;SDS011;13997;48.902;12.472;2023-04-22T13:28:18;3.17;;;1.92;;
26271;SDS011;13997;48.902;12.472;2023-04-22T13:30:44;6.20;;;1.65;;
26271;SDS011;13997;48.902;12.472;2023-04-22T13:33:09;3.55;;;1.20;;
26271;SDS011;13997;48.902;12.472;2023-04-22T13:35:35;7.57;;;1.85;;
26271;SDS011;13997;48.902;12.472;2023-04-22T13:38:01;1.65;;;1.42;;
26271;SDS011;13997;48.902;12.472;2023-04-22T13:40:26;5.13;;;1.58;;
26271;SDS011;13997;48.902;12.472;2023-04-22T13:42:53;2.20;;;1.23;;
26271;SDS011;13997;48.902;12.472;2023-04-22T13:45:18;5.75;;;1.27;;
26271;SDS011;13997;48.902;12.472;2023-04-22T13:47:44;2.40;;;1.23;;
26271;SDS011;13997;48.902;12.472;2023-04-22T13:50:10;2.08;;;1.20;;
26271;SDS011;13997;48.902;12.472;2023-04-22T13:52:35;3.40;;;1.25;;
26271;SDS011;13997;48.902;12.472;2023-04-22T13:55:01;2.83;;;1.20;;
26271;SDS011;13997;48.902;12.472;2023-04-22T13:57:27;3.90;;;1.00;;
26271;SDS011;13997;48.902;12.472;2023-04-22T13:59:53;2.42;;;1.02;;
26271;SDS011;13997;48.902;12.472;2023-04-22T14:02:18;2.08;;;1.23;;
26271;SDS011;13997;48.902;12.472;2023-04-22T14:04:44;2.03;;;1.30;;
26271;SDS011;13997;48.902;12.472;2023-04-22T14:07:10;1.50;;;1.13;;
26271;SDS011;13997;48.902;12.472;2023-04-22T14:09:36;3.33;;;1.27;;
26271;SDS011;13997;48.902;12.472;2023-04-22T14:12:02;2.47;;;1.05;;
26271;SDS011;13997;48.902;12.472;2023-04-22T14:14:29;2.20;;;1.13;;
26271;SDS011;13997;48.902;12.472;2023-04-22T14:16:55;4.88;;;1.50;;
26271;SDS011;13997;48.902;12.472;2023-04-22T14:19:20;1.70;;;1.20;;
26271;SDS011;13997;48.902;12.472;2023-04-22T14:21:47;3.45;;;1.10;;
26271;SDS011;13997;48.902;12.472;2023-04-22T14:24:13;1.42;;;0.90;;
26271;SDS011;13997;48.902;12.472;2023-04-22T14:26:38;1.88;;;1.05;;
26271;SDS011;13997;48.902;12.472;2023-04-22T14:29:04;5.75;;;1.35;;
26271;SDS011;13997;48.902;12.472;2023-04-22T14:31:30;2.33;;;1.20;;
26271;SDS011;13997;48.902;12.472;2023-04-22T14:33:55;4.97;;;1.40;;
26271;SDS011;13997;48.902;12.472;2023-04-22T14:36:21;2.92;;;1.08;;
26271;SDS011;13997;48.902;12.472;2023-04-22T14:38:46;1.58;;;1.10;;